sensor_id;sensor_type;location;lat;lon;timestamp;pressure;altitude;pressure_sealevel;temperature
74321;BMP280;62738;45.772;4.804;2023-01-23T00:00:53;100630.38;;;2.77
74321;BMP280;62738;45.772;4.804;2023-01-23T00:03:21;100631.78;;;2.67
74321;BMP280;62738;45.772;4.804;2023-01-23T00:05:58;100629.94;;;2.58
74321;BMP280;62738;45.772;4.804;2023-01-23T00:08:26;100625.44;;;2.55
74321;BMP280;62738;45.772;4.804;2023-01-23T00:10:55;100632.88;;;2.75
74321;BMP280;62738;45.772;4.804;2023-01-23T00:13:21;100627.06;;;2.47
74321;BMP280;62738;45.772;4.804;2023-01-23T00:15:48;100631.75;;;2.41
74321;BMP280;62738;45.772;4.804;2023-01-23T00:18:15;100621.00;;;2.37
74321;BMP280;62738;45.772;4.804;2023-01-23T00:20:42;100618.34;;;2.43
74321;BMP280;62738;45.772;4.804;2023-01-23T00:23:10;100628.94;;;2.56
74321;BMP280;62738;45.772;4.804;2023-01-23T00:25:37;100625.50;;;2.61
74321;BMP280;62738;45.772;4.804;2023-01-23T00:28:04;100624.81;;;2.46
74321;BMP280;62738;45.772;4.804;2023-01-23T00:30:32;100617.81;;;2.45
74321;BMP280;62738;45.772;4.804;2023-01-23T00:32:59;100618.94;;;2.78
74321;BMP280;62738;45.772;4.804;2023-01-23T00:35:25;100614.84;;;2.68
74321;BMP280;62738;45.772;4.804;2023-01-23T00:37:52;100607.69;;;2.51
74321;BMP280;62738;45.772;4.804;2023-01-23T00:40:19;100607.50;;;2.54
74321;BMP280;62738;45.772;4.804;2023-01-23T00:42:46;100607.97;;;2.78
74321;BMP280;62738;45.772;4.804;2023-01-23T00:45:12;100606.44;;;2.72
74321;BMP280;62738;45.772;4.804;2023-01-23T00:47:39;100605.63;;;2.66
74321;BMP280;62738;45.772;4.804;2023-01-23T00:50:06;100594.19;;;2.67
74321;BMP280;62738;45.772;4.804;2023-01-23T00:52:32;100604.00;;;2.54
74321;BMP280;62738;45.772;4.804;2023-01-23T00:54:59;100598.63;;;2.65
74321;BMP280;62738;45.772;4.804;2023-01-23T00:57:26;100595.66;;;2.63
74321;BMP280;62738;45.772;4.804;2023-01-23T00:59:53;100600.78;;;2.55
74321;BMP280;62738;45.772;4.804;2023-01-23T01:02:19;100596.63;;;2.39
74321;BMP280;62738;45.772;4.804;2023-01-23T01:04:46;100601.41;;;2.45
74321;BMP280;62738;45.772;4.804;2023-01-23T01:07:13;100611.75;;;2.35
74321;BMP280;62738;45.772;4.804;2023-01-23T01:09:39;100589.22;;;2.46
74321;BMP280;62738;45.772;4.804;2023-01-23T01:12:06;100586.50;;;2.71
74321;BMP280;62738;45.772;4.804;2023-01-23T01:14:33;100588.31;;;2.54
74321;BMP280;62738;45.772;4.804;2023-01-23T01:16:59;100602.28;;;2.56
74321;BMP280;62738;45.772;4.804;2023-01-23T01:19:26;100593.44;;;2.47
74321;BMP280;62738;45.772;4.804;2023-01-23T01:21:53;100608.72;;;2.53
74321;BMP280;62738;45.772;4.804;2023-01-23T01:24:20;100602.84;;;2.60
74321;BMP280;62738;45.772;4.804;2023-01-23T01:26:46;100598.31;;;2.57
74321;BMP280;62738;45.772;4.804;2023-01-23T01:29:13;100600.66;;;2.44
74321;BMP280;62738;45.772;4.804;2023-01-23T01:31:40;100603.88;;;2.42
74321;BMP280;62738;45.772;4.804;2023-01-23T01:34:06;100604.47;;;2.52
74321;BMP280;62738;45.772;4.804;2023-01-23T01:36:33;100595.84;;;2.59
74321;BMP280;62738;45.772;4.804;2023-01-23T01:38:59;100614.38;;;2.70
74321;BMP280;62738;45.772;4.804;2023-01-23T01:41:26;100604.44;;;2.72
74321;BMP280;62738;45.772;4.804;2023-01-23T01:43:53;100606.53;;;2.57
74321;BMP280;62738;45.772;4.804;2023-01-23T01:46:25;100614.69;;;2.52
74321;BMP280;62738;45.772;4.804;2023-01-23T01:59:49;100600.44;;;2.48
74321;BMP280;62738;45.772;4.804;2023-01-23T02:02:26;100594.06;;;2.56
74321;BMP280;62738;45.772;4.804;2023-01-23T02:04:58;100595.97;;;2.50
74321;BMP280;62738;45.772;4.804;2023-01-23T02:07:32;100603.34;;;2.38
74321;BMP280;62738;45.772;4.804;2023-01-23T02:10:02;100604.47;;;2.52
74321;BMP280;62738;45.772;4.804;2023-01-23T02:12:30;100597.88;;;2.64
74321;BMP280;62738;45.772;4.804;2023-01-23T02:14:57;100585.75;;;2.71
74321;BMP280;62738;45.772;4.804;2023-01-23T02:17:24;100598.09;;;2.61
74321;BMP280;62738;45.772;4.804;2023-01-23T02:25:19;100583.78;;;2.77
74321;BMP280;62738;45.772;4.804;2023-01-23T02:27:48;100585.03;;;2.50
74321;BMP280;62738;45.772;4.804;2023-01-23T02:30:14;100588.88;;;2.58
74321;BMP280;62738;45.772;4.804;2023-01-23T02:32:43;100597.78;;;2.53
74321;BMP280;62738;45.772;4.804;2023-01-23T02:35:29;100594.44;;;2.44
74321;BMP280;62738;45.772;4.804;2023-01-23T02:37:59;100600.56;;;2.59
74321;BMP280;62738;45.772;4.804;2023-01-23T02:40:32;100595.31;;;2.55
74321;BMP280;62738;45.772;4.804;2023-01-23T02:43:07;100588.47;;;2.45
74321;BMP280;62738;45.772;4.804;2023-01-23T02:45:34;100579.25;;;2.42
74321;BMP280;62738;45.772;4.804;2023-01-23T02:48:02;100576.13;;;2.55
74321;BMP280;62738;45.772;4.804;2023-01-23T02:50:31;100596.25;;;2.52
74321;BMP280;62738;45.772;4.804;2023-01-23T02:52:58;100587.50;;;2.48
74321;BMP280;62738;45.772;4.804;2023-01-23T02:55:25;100600.13;;;2.40
74321;BMP280;62738;45.772;4.804;2023-01-23T02:57:55;100580.59;;;2.53
74321;BMP280;62738;45.772;4.804;2023-01-23T03:00:42;100586.25;;;2.49
74321;BMP280;62738;45.772;4.804;2023-01-23T03:03:09;100589.16;;;2.40
74321;BMP280;62738;45.772;4.804;2023-01-23T03:05:35;100586.25;;;2.49
74321;BMP280;62738;45.772;4.804;2023-01-23T03:08:02;100589.47;;;2.48
74321;BMP280;62738;45.772;4.804;2023-01-23T03:10:29;100581.59;;;2.55
74321;BMP280;62738;45.772;4.804;2023-01-23T03:12:56;100583.25;;;2.47
74321;BMP280;62738;45.772;4.804;2023-01-23T03:15:29;100572.84;;;2.51
74321;BMP280;62738;45.772;4.804;2023-01-23T03:17:58;100586.75;;;2.48
74321;BMP280;62738;45.772;4.804;2023-01-23T03:20:25;100581.53;;;2.50
74321;BMP280;62738;45.772;4.804;2023-01-23T03:22:53;100581.22;;;2.42
74321;BMP280;62738;45.772;4.804;2023-01-23T03:25:20;100579.75;;;2.47
74321;BMP280;62738;45.772;4.804;2023-01-23T03:27:47;100608.31;;;2.60
74321;BMP280;62738;45.772;4.804;2023-01-23T03:30:15;100584.97;;;2.45
74321;BMP280;62738;45.772;4.804;2023-01-23T03:32:43;100576.28;;;2.46
74321;BMP280;62738;45.772;4.804;2023-01-23T03:35:10;100575.84;;;2.53
74321;BMP280;62738;45.772;4.804;2023-01-23T03:37:42;100580.03;;;2.49
74321;BMP280;62738;45.772;4.804;2023-01-23T03:40:21;100570.91;;;2.57
74321;BMP280;62738;45.772;4.804;2023-01-23T03:43:07;100566.22;;;2.37
74321;BMP280;62738;45.772;4.804;2023-01-23T03:45:33;100558.50;;;2.36
74321;BMP280;62738;45.772;4.804;2023-01-23T03:48:00;100564.25;;;2.38
74321;BMP280;62738;45.772;4.804;2023-01-23T03:50:26;100563.88;;;2.51
74321;BMP280;62738;45.772;4.804;2023-01-23T03:52:53;100569.50;;;2.41
74321;BMP280;62738;45.772;4.804;2023-01-23T03:55:20;100551.59;;;2.40
74321;BMP280;62738;45.772;4.804;2023-01-23T03:57:46;100555.66;;;2.51
74321;BMP280;62738;45.772;4.804;2023-01-23T04:00:13;100561.56;;;2.44
74321;BMP280;62738;45.772;4.804;2023-01-23T04:02:42;100558.44;;;2.30
74321;BMP280;62738;45.772;4.804;2023-01-23T04:05:09;100559.84;;;2.46
74321;BMP280;62738;45.772;4.804;2023-01-23T04:07:35;100551.88;;;2.48
74321;BMP280;62738;45.772;4.804;2023-01-23T04:10:02;100548.88;;;2.46
74321;BMP280;62738;45.772;4.804;2023-01-23T04:12:29;100545.34;;;2.66
74321;BMP280;62738;45.772;4.804;2023-01-23T04:14:55;100551.13;;;2.48
74321;BMP280;62738;45.772;4.804;2023-01-23T04:17:22;100556.84;;;2.44
74321;BMP280;62738;45.772;4.804;2023-01-23T04:19:49;100556.88;;;2.50
74321;BMP280;62738;45.772;4.804;2023-01-23T04:22:15;100555.69;;;2.30
74321;BMP280;62738;45.772;4.804;2023-01-23T04:24:42;100551.72;;;2.31
74321;BMP280;62738;45.772;4.804;2023-01-23T04:27:08;100562.75;;;2.37
74321;BMP280;62738;45.772;4.804;2023-01-23T04:29:35;100550.47;;;2.32
74321;BMP280;62738;45.772;4.804;2023-01-23T04:32:02;100561.56;;;2.44
74321;BMP280;62738;45.772;4.804;2023-01-23T04:34:28;100554.59;;;2.42
74321;BMP280;62738;45.772;4.804;2023-01-23T04:36:55;100552.38;;;2.47
74321;BMP280;62738;45.772;4.804;2023-01-23T04:39:21;100537.94;;;2.46
74321;BMP280;62738;45.772;4.804;2023-01-23T04:41:48;100544.69;;;2.51
74321;BMP280;62738;45.772;4.804;2023-01-23T04:44:15;100531.50;;;2.49
74321;BMP280;62738;45.772;4.804;2023-01-23T04:46:48;100537.31;;;2.57
74321;BMP280;62738;45.772;4.804;2023-01-23T04:49:16;100534.63;;;2.62
74321;BMP280;62738;45.772;4.804;2023-01-23T04:51:45;100536.06;;;2.58
74321;BMP280;62738;45.772;4.804;2023-01-23T04:54:13;100526.50;;;2.48
74321;BMP280;62738;45.772;4.804;2023-01-23T04:56:41;100522.66;;;2.65
74321;BMP280;62738;45.772;4.804;2023-01-23T04:59:07;100524.50;;;2.74
74321;BMP280;62738;45.772;4.804;2023-01-23T05:01:34;100536.00;;;2.52
74321;BMP280;62738;45.772;4.804;2023-01-23T05:04:02;100528.00;;;2.49
74321;BMP280;62738;45.772;4.804;2023-01-23T05:06:28;100517.78;;;2.49
74321;BMP280;62738;45.772;4.804;2023-01-23T05:08:55;100537.72;;;2.50
74321;BMP280;62738;45.772;4.804;2023-01-23T05:11:22;100523.91;;;2.38
74321;BMP280;62738;45.772;4.804;2023-01-23T05:13:49;100527.38;;;2.59
74321;BMP280;62738;45.772;4.804;2023-01-23T05:16:16;100523.66;;;2.62
74321;BMP280;62738;45.772;4.804;2023-01-23T05:18:42;100510.75;;;2.68
74321;BMP280;62738;45.772;4.804;2023-01-23T05:21:09;100514.63;;;2.56
74321;BMP280;62738;45.772;4.804;2023-01-23T05:23:35;100513.56;;;2.48
74321;BMP280;62738;45.772;4.804;2023-01-23T05:26:02;100508.50;;;2.67
74321;BMP280;62738;45.772;4.804;2023-01-23T05:28:29;100519.09;;;2.28
74321;BMP280;62738;45.772;4.804;2023-01-23T05:30:55;100531.38;;;2.38
74321;BMP280;62738;45.772;4.804;2023-01-23T05:33:22;100519.69;;;2.37
74321;BMP280;62738;45.772;4.804;2023-01-23T05:35:49;100535.38;;;2.63
74321;BMP280;62738;45.772;4.804;2023-01-23T05:38:15;100545.91;;;2.44
74321;BMP280;62738;45.772;4.804;2023-01-23T05:40:42;100533.44;;;2.43
74321;BMP280;62738;45.772;4.804;2023-01-23T05:43:15;100541.16;;;2.45
74321;BMP280;62738;45.772;4.804;2023-01-23T05:45:42;100550.19;;;2.51
74321;BMP280;62738;45.772;4.804;2023-01-23T05:48:09;100526.81;;;2.55
74321;BMP280;62738;45.772;4.804;2023-01-23T05:50:35;100539.09;;;2.60
74321;BMP280;62738;45.772;4.804;2023-01-23T05:53:02;100533.25;;;2.52
74321;BMP280;62738;45.772;4.804;2023-01-23T05:55:29;100531.28;;;2.53
74321;BMP280;62738;45.772;4.804;2023-01-23T05:57:56;100542.03;;;2.56
74321;BMP280;62738;45.772;4.804;2023-01-23T06:00:22;100539.34;;;2.62
74321;BMP280;62738;45.772;4.804;2023-01-23T06:02:49;100523.28;;;2.49
74321;BMP280;62738;45.772;4.804;2023-01-23T06:05:16;100525.25;;;2.49
74321;BMP280;62738;45.772;4.804;2023-01-23T06:07:43;100531.34;;;2.58
74321;BMP280;62738;45.772;4.804;2023-01-23T06:10:09;100519.63;;;2.58
74321;BMP280;62738;45.772;4.804;2023-01-23T06:12:36;100537.16;;;2.46
74321;BMP280;62738;45.772;4.804;2023-01-23T06:15:03;100514.00;;;2.41
74321;BMP280;62738;45.772;4.804;2023-01-23T06:17:30;100510.78;;;2.42
74321;BMP280;62738;45.772;4.804;2023-01-23T06:19:57;100507.16;;;2.57
74321;BMP280;62738;45.772;4.804;2023-01-23T06:22:24;100507.88;;;2.52
74321;BMP280;62738;45.772;4.804;2023-01-23T06:24:50;100503.56;;;2.45
74321;BMP280;62738;45.772;4.804;2023-01-23T06:27:18;100520.53;;;2.49
74321;BMP280;62738;45.772;4.804;2023-01-23T06:29:44;100529.22;;;2.48
74321;BMP280;62738;45.772;4.804;2023-01-23T06:32:11;100510.78;;;2.42
74321;BMP280;62738;45.772;4.804;2023-01-23T06:34:38;100530.25;;;2.50
74321;BMP280;62738;45.772;4.804;2023-01-23T06:37:04;100519.56;;;2.52
74321;BMP280;62738;45.772;4.804;2023-01-23T06:39:31;100507.75;;;2.66
74321;BMP280;62738;45.772;4.804;2023-01-23T06:41:59;100512.59;;;2.51
74321;BMP280;62738;45.772;4.804;2023-01-23T06:44:26;100521.91;;;2.65
74321;BMP280;62738;45.772;4.804;2023-01-23T06:46:52;100519.00;;;2.42
74321;BMP280;62738;45.772;4.804;2023-01-23T06:49:19;100513.56;;;2.48
74321;BMP280;62738;45.772;4.804;2023-01-23T06:51:46;100516.78;;;2.72
74321;BMP280;62738;45.772;4.804;2023-01-23T06:54:12;100516.28;;;2.74
74321;BMP280;62738;45.772;4.804;2023-01-23T06:56:39;100509.44;;;2.58
74321;BMP280;62738;45.772;4.804;2023-01-23T06:59:05;100507.97;;;2.63
74321;BMP280;62738;45.772;4.804;2023-01-23T07:01:32;100510.97;;;2.65
74321;BMP280;62738;45.772;4.804;2023-01-23T07:03:58;100510.75;;;2.68
74321;BMP280;62738;45.772;4.804;2023-01-23T07:06:25;100508.75;;;2.63
74321;BMP280;62738;45.772;4.804;2023-01-23T07:08:52;100502.25;;;2.66
74321;BMP280;62738;45.772;4.804;2023-01-23T07:11:18;100497.66;;;2.52
74321;BMP280;62738;45.772;4.804;2023-01-23T07:13:45;100503.50;;;2.65
74321;BMP280;62738;45.772;4.804;2023-01-23T07:16:12;100499.50;;;2.61
74321;BMP280;62738;45.772;4.804;2023-01-23T07:18:38;100513.03;;;2.75
74321;BMP280;62738;45.772;4.804;2023-01-23T07:21:05;100506.72;;;2.64
74321;BMP280;62738;45.772;4.804;2023-01-23T07:23:33;100518.03;;;2.77
74321;BMP280;62738;45.772;4.804;2023-01-23T07:26:01;100510.47;;;2.66
74321;BMP280;62738;45.772;4.804;2023-01-23T07:28:29;100522.84;;;2.56
74321;BMP280;62738;45.772;4.804;2023-01-23T07:30:57;100513.00;;;2.70
74321;BMP280;62738;45.772;4.804;2023-01-23T07:33:24;100517.19;;;2.65
74321;BMP280;62738;45.772;4.804;2023-01-23T07:35:51;100523.50;;;2.71
74321;BMP280;62738;45.772;4.804;2023-01-23T07:38:17;100520.22;;;2.67
74321;BMP280;62738;45.772;4.804;2023-01-23T07:40:44;100513.75;;;2.70
74321;BMP280;62738;45.772;4.804;2023-01-23T07:43:11;100521.59;;;2.83
74321;BMP280;62738;45.772;4.804;2023-01-23T07:45:37;100519.78;;;2.74
74321;BMP280;62738;45.772;4.804;2023-01-23T07:48:04;100525.66;;;2.93
74321;BMP280;62738;45.772;4.804;2023-01-23T07:50:31;100521.59;;;2.83
74321;BMP280;62738;45.772;4.804;2023-01-23T07:52:58;100515.25;;;2.71
74321;BMP280;62738;45.772;4.804;2023-01-23T07:55:24;100535.97;;;2.78
74321;BMP280;62738;45.772;4.804;2023-01-23T07:57:51;100533.72;;;2.76
74321;BMP280;62738;45.772;4.804;2023-01-23T08:00:18;100537.97;;;2.77
74321;BMP280;62738;45.772;4.804;2023-01-23T08:02:46;100545.69;;;2.73
74321;BMP280;62738;45.772;4.804;2023-01-23T08:05:13;100532.06;;;2.85
74321;BMP280;62738;45.772;4.804;2023-01-23T08:07:39;100539.63;;;2.95
74321;BMP280;62738;45.772;4.804;2023-01-23T08:10:06;100540.16;;;2.99
74321;BMP280;62738;45.772;4.804;2023-01-23T08:12:33;100549.13;;;3.00
74321;BMP280;62738;45.772;4.804;2023-01-23T08:15:00;100556.47;;;3.14
74321;BMP280;62738;45.772;4.804;2023-01-23T08:17:27;100553.84;;;2.99
74321;BMP280;62738;45.772;4.804;2023-01-23T08:19:54;100563.72;;;2.86
74321;BMP280;62738;45.772;4.804;2023-01-23T08:22:21;100548.59;;;2.96
74321;BMP280;62738;45.772;4.804;2023-01-23T08:24:47;100535.75;;;3.13
74321;BMP280;62738;45.772;4.804;2023-01-23T08:27:14;100539.47;;;3.10
74321;BMP280;62738;45.772;4.804;2023-01-23T08:29:40;100562.78;;;2.94
74321;BMP280;62738;45.772;4.804;2023-01-23T08:32:07;100540.91;;;3.00
74321;BMP280;62738;45.772;4.804;2023-01-23T08:34:34;100538.16;;;3.00
74321;BMP280;62738;45.772;4.804;2023-01-23T08:37:00;100539.13;;;2.97
74321;BMP280;62738;45.772;4.804;2023-01-23T08:39:27;100553.56;;;2.92
74321;BMP280;62738;45.772;4.804;2023-01-23T08:41:54;100531.91;;;2.94
74321;BMP280;62738;45.772;4.804;2023-01-23T08:44:20;100532.13;;;2.96
74321;BMP280;62738;45.772;4.804;2023-01-23T08:46:47;100532.91;;;2.96
74321;BMP280;62738;45.772;4.804;2023-01-23T08:49:13;100543.69;;;3.05
74321;BMP280;62738;45.772;4.804;2023-01-23T08:51:40;100533.47;;;3.06
74321;BMP280;62738;45.772;4.804;2023-01-23T08:54:07;100534.94;;;3.01
74321;BMP280;62738;45.772;4.804;2023-01-23T08:56:33;100544.25;;;3.15
74321;BMP280;62738;45.772;4.804;2023-01-23T08:59:00;100546.66;;;3.02
74321;BMP280;62738;45.772;4.804;2023-01-23T09:01:27;100547.31;;;3.23
74321;BMP280;62738;45.772;4.804;2023-01-23T09:03:53;100545.00;;;3.16
74321;BMP280;62738;45.772;4.804;2023-01-23T09:06:21;100550.84;;;2.97
74321;BMP280;62738;45.772;4.804;2023-01-23T09:08:48;100563.03;;;2.96
74321;BMP280;62738;45.772;4.804;2023-01-23T09:11:15;100559.91;;;3.09
74321;BMP280;62738;45.772;4.804;2023-01-23T09:13:42;100545.59;;;2.94
74321;BMP280;62738;45.772;4.804;2023-01-23T09:16:08;100560.66;;;3.09
74321;BMP280;62738;45.772;4.804;2023-01-23T09:18:35;100543.50;;;3.15
74321;BMP280;62738;45.772;4.804;2023-01-23T09:21:07;100543.78;;;3.17
74321;BMP280;62738;45.772;4.804;2023-01-23T09:23:34;100543.41;;;3.40
74321;BMP280;62738;45.772;4.804;2023-01-23T09:26:03;100534.97;;;3.49
74321;BMP280;62738;45.772;4.804;2023-01-23T09:28:30;100536.16;;;3.37
74321;BMP280;62738;45.772;4.804;2023-01-23T09:31:01;100545.63;;;3.36
74321;BMP280;62738;45.772;4.804;2023-01-23T09:33:28;100542.38;;;3.32
74321;BMP280;62738;45.772;4.804;2023-01-23T09:35:54;100548.00;;;3.18
74321;BMP280;62738;45.772;4.804;2023-01-23T09:38:23;100551.94;;;3.11
74321;BMP280;62738;45.772;4.804;2023-01-23T09:40:51;100538.81;;;3.21
74321;BMP280;62738;45.772;4.804;2023-01-23T09:46:02;100542.81;;;3.25
74321;BMP280;62738;45.772;4.804;2023-01-23T09:48:42;100535.31;;;3.20
74321;BMP280;62738;45.772;4.804;2023-01-23T09:51:24;100520.22;;;3.41
74321;BMP280;62738;45.772;4.804;2023-01-23T09:53:57;100509.53;;;3.49
74321;BMP280;62738;45.772;4.804;2023-01-23T09:56:31;100517.91;;;3.77
74321;BMP280;62738;45.772;4.804;2023-01-23T09:59:01;100510.41;;;3.77
74321;BMP280;62738;45.772;4.804;2023-01-23T10:01:29;100510.44;;;3.83
74321;BMP280;62738;45.772;4.804;2023-01-23T10:03:58;100495.69;;;3.69
74321;BMP280;62738;45.772;4.804;2023-01-23T10:06:31;100507.97;;;3.85
74321;BMP280;62738;45.772;4.804;2023-01-23T10:09:34;100496.25;;;4.01
74321;BMP280;62738;45.772;4.804;2023-01-23T10:12:14;100502.66;;;3.70
74321;BMP280;62738;45.772;4.804;2023-01-23T10:15:12;100499.69;;;3.79
74321;BMP280;62738;45.772;4.804;2023-01-23T10:20:17;100473.03;;;3.86
74321;BMP280;62738;45.772;4.804;2023-01-23T10:23:04;100476.66;;;3.55
74321;BMP280;62738;45.772;4.804;2023-01-23T10:25:37;100477.97;;;3.65
74321;BMP280;62738;45.772;4.804;2023-01-23T10:28:35;100476.25;;;3.78
74321;BMP280;62738;45.772;4.804;2023-01-23T10:31:09;100475.00;;;3.79
74321;BMP280;62738;45.772;4.804;2023-01-23T10:33:46;100464.00;;;3.74
74321;BMP280;62738;45.772;4.804;2023-01-23T10:39:24;100482.44;;;3.73
74321;BMP280;62738;45.772;4.804;2023-01-23T10:41:52;100474.75;;;3.83
74321;BMP280;62738;45.772;4.804;2023-01-23T10:44:27;100463.50;;;3.75
74321;BMP280;62738;45.772;4.804;2023-01-23T10:46:58;100466.72;;;3.74
74321;BMP280;62738;45.772;4.804;2023-01-23T10:49:34;100467.00;;;3.65
74321;BMP280;62738;45.772;4.804;2023-01-23T10:52:04;100467.28;;;3.83
74321;BMP280;62738;45.772;4.804;2023-01-23T10:54:49;100467.03;;;3.87
74321;BMP280;62738;45.772;4.804;2023-01-23T10:57:21;100467.53;;;3.86
74321;BMP280;62738;45.772;4.804;2023-01-23T10:59:56;100462.25;;;3.76
74321;BMP280;62738;45.772;4.804;2023-01-23T11:02:35;100473.22;;;3.65
74321;BMP280;62738;45.772;4.804;2023-01-23T11:05:38;100457.00;;;3.62
74321;BMP280;62738;45.772;4.804;2023-01-23T11:10:51;100477.69;;;3.63
74321;BMP280;62738;45.772;4.804;2023-01-23T11:13:26;100465.66;;;3.49
74321;BMP280;62738;45.772;4.804;2023-01-23T11:15:53;100454.28;;;3.73
74321;BMP280;62738;45.772;4.804;2023-01-23T11:18:29;100446.47;;;3.55
74321;BMP280;62738;45.772;4.804;2023-01-23T11:20:56;100446.53;;;3.66
74321;BMP280;62738;45.772;4.804;2023-01-23T11:23:24;100447.06;;;3.81
74321;BMP280;62738;45.772;4.804;2023-01-23T11:25:52;100443.03;;;3.71
74321;BMP280;62738;45.772;4.804;2023-01-23T11:31:02;100436.81;;;3.70
74321;BMP280;62738;45.772;4.804;2023-01-23T11:33:53;100441.81;;;3.83
74321;BMP280;62738;45.772;4.804;2023-01-23T11:41:46;100432.09;;;3.82
74321;BMP280;62738;45.772;4.804;2023-01-23T11:44:18;100435.06;;;3.73
74321;BMP280;62738;45.772;4.804;2023-01-23T11:50:18;100399.94;;;3.88
74321;BMP280;62738;45.772;4.804;2023-01-23T11:52:56;100407.16;;;3.86
74321;BMP280;62738;45.772;4.804;2023-01-23T12:04:18;100422.13;;;3.96
74321;BMP280;62738;45.772;4.804;2023-01-23T12:06:59;100404.88;;;3.78
74321;BMP280;62738;45.772;4.804;2023-01-23T12:14:51;100399.13;;;3.76
74321;BMP280;62738;45.772;4.804;2023-01-23T12:17:40;100401.91;;;3.82
74321;BMP280;62738;45.772;4.804;2023-01-23T12:20:43;100405.16;;;3.86
74321;BMP280;62738;45.772;4.804;2023-01-23T12:26:06;100403.63;;;3.74
74321;BMP280;62738;45.772;4.804;2023-01-23T12:39:51;100395.66;;;3.81
74321;BMP280;62738;45.772;4.804;2023-01-23T12:42:28;100383.91;;;3.64
74321;BMP280;62738;45.772;4.804;2023-01-23T12:45:15;100394.13;;;3.75
74321;BMP280;62738;45.772;4.804;2023-01-23T12:50:45;100385.94;;;3.80
74321;BMP280;62738;45.772;4.804;2023-01-23T12:53:17;100370.22;;;3.81
74321;BMP280;62738;45.772;4.804;2023-01-23T12:58:25;100395.34;;;3.52
74321;BMP280;62738;45.772;4.804;2023-01-23T13:06:45;100382.19;;;3.78
74321;BMP280;62738;45.772;4.804;2023-01-23T13:11:52;100390.94;;;3.99
74321;BMP280;62738;45.772;4.804;2023-01-23T13:17:01;100396.94;;;4.03
74321;BMP280;62738;45.772;4.804;2023-01-23T13:19:30;100381.22;;;3.92
74321;BMP280;62738;45.772;4.804;2023-01-23T13:25:01;100392.16;;;3.81
74321;BMP280;62738;45.772;4.804;2023-01-23T13:27:49;100398.69;;;4.06
74321;BMP280;62738;45.772;4.804;2023-01-23T13:32:55;100395.22;;;3.94
74321;BMP280;62738;45.772;4.804;2023-01-23T13:49:16;100376.44;;;3.76
74321;BMP280;62738;45.772;4.804;2023-01-23T13:52:23;100366.97;;;3.82
74321;BMP280;62738;45.772;4.804;2023-01-23T13:55:28;100373.22;;;4.00
74321;BMP280;62738;45.772;4.804;2023-01-23T13:58:30;100377.47;;;4.01
74321;BMP280;62738;45.772;4.804;2023-01-23T14:01:19;100378.22;;;3.90
74321;BMP280;62738;45.772;4.804;2023-01-23T14:04:22;100377.19;;;3.82
74321;BMP280;62738;45.772;4.804;2023-01-23T14:07:29;100384.69;;;3.98
74321;BMP280;62738;45.772;4.804;2023-01-23T14:10:26;100382.22;;;3.89
74321;BMP280;62738;45.772;4.804;2023-01-23T14:13:10;100381.72;;;3.85
74321;BMP280;62738;45.772;4.804;2023-01-23T14:15:52;100392.91;;;3.98
74321;BMP280;62738;45.772;4.804;2023-01-23T14:18:54;100391.41;;;3.75
74321;BMP280;62738;45.772;4.804;2023-01-23T14:21:37;100389.69;;;3.89
74321;BMP280;62738;45.772;4.804;2023-01-23T14:24:39;100374.47;;;4.04
74321;BMP280;62738;45.772;4.804;2023-01-23T14:27:14;100380.97;;;4.18
74321;BMP280;62738;45.772;4.804;2023-01-23T14:29:59;100375.47;;;4.01
74321;BMP280;62738;45.772;4.804;2023-01-23T14:32:32;100366.97;;;4.05
74321;BMP280;62738;45.772;4.804;2023-01-23T14:34:59;100371.22;;;4.00
74321;BMP280;62738;45.772;4.804;2023-01-23T14:37:26;100371.75;;;3.93
74321;BMP280;62738;45.772;4.804;2023-01-23T14:39:55;100374.44;;;3.71
74321;BMP280;62738;45.772;4.804;2023-01-23T14:42:27;100358.97;;;3.73
74321;BMP280;62738;45.772;4.804;2023-01-23T14:44:57;100386.19;;;3.99
74321;BMP280;62738;45.772;4.804;2023-01-23T14:47:25;100384.44;;;3.85
74321;BMP280;62738;45.772;4.804;2023-01-23T14:49:59;100387.44;;;3.98
74321;BMP280;62738;45.772;4.804;2023-01-23T14:52:28;100383.72;;;3.96
74321;BMP280;62738;45.772;4.804;2023-01-23T14:54:57;100378.22;;;4.01
74321;BMP280;62738;45.772;4.804;2023-01-23T14:57:32;100364.72;;;3.81
74321;BMP280;62738;45.772;4.804;2023-01-23T15:00:00;100387.19;;;3.85
74321;BMP280;62738;45.772;4.804;2023-01-23T15:05:20;100373.22;;;3.83
74321;BMP280;62738;45.772;4.804;2023-01-23T15:07:59;100375.22;;;3.82
74321;BMP280;62738;45.772;4.804;2023-01-23T15:10:31;100393.94;;;3.90
74321;BMP280;62738;45.772;4.804;2023-01-23T15:13:21;100385.41;;;3.76
74321;BMP280;62738;45.772;4.804;2023-01-23T15:15:56;100382.97;;;3.90
74321;BMP280;62738;45.772;4.804;2023-01-23T15:18:29;100367.44;;;3.75
74321;BMP280;62738;45.772;4.804;2023-01-23T15:21:00;100379.22;;;3.87
74321;BMP280;62738;45.772;4.804;2023-01-23T15:23:32;100369.97;;;3.96
74321;BMP280;62738;45.772;4.804;2023-01-23T15:26:31;100382.22;;;3.89
74321;BMP280;62738;45.772;4.804;2023-01-23T15:29:01;100381.72;;;4.07
74321;BMP280;62738;45.772;4.804;2023-01-23T15:31:33;100383.72;;;3.90
74321;BMP280;62738;45.772;4.804;2023-01-23T15:36:45;100399.44;;;3.95
74321;BMP280;62738;45.772;4.804;2023-01-23T15:39:20;100388.44;;;3.84
74321;BMP280;62738;45.772;4.804;2023-01-23T15:41:50;100397.91;;;3.83
74321;BMP280;62738;45.772;4.804;2023-01-23T15:44:20;100381.91;;;3.76
74321;BMP280;62738;45.772;4.804;2023-01-23T15:46:47;100368.47;;;3.72
74321;BMP280;62738;45.772;4.804;2023-01-23T15:49:14;100385.94;;;3.80
74321;BMP280;62738;45.772;4.804;2023-01-23T15:51:53;100386.16;;;3.60
74321;BMP280;62738;45.772;4.804;2023-01-23T15:54:23;100391.16;;;3.78
74321;BMP280;62738;45.772;4.804;2023-01-23T15:56:51;100394.88;;;3.75
74321;BMP280;62738;45.772;4.804;2023-01-23T15:59:32;100396.66;;;3.78
74321;BMP280;62738;45.772;4.804;2023-01-23T16:01:59;100394.91;;;3.81
74321;BMP280;62738;45.772;4.804;2023-01-23T16:04:26;100413.34;;;3.75
74321;BMP280;62738;45.772;4.804;2023-01-23T16:06:52;100397.41;;;3.79
74321;BMP280;62738;45.772;4.804;2023-01-23T16:09:27;100395.91;;;3.78
74321;BMP280;62738;45.772;4.804;2023-01-23T16:11:57;100384.91;;;3.67
74321;BMP280;62738;45.772;4.804;2023-01-23T16:14:24;100394.13;;;3.75
74321;BMP280;62738;45.772;4.804;2023-01-23T16:16:51;100397.66;;;3.81